Farmington, Arkansas
Current Conditions -  °F | °C
As of 11:53 AM on Monday 26 Jan 2015 (Local Time) from KFYV Reporting Station
Clear Clear  
Wind Chill: 51°   Ceiling: Unl
Heat Index: 51°   Visibility: 10mi
Dew Point: 31°   Wind: 14mph
Humidity: 46%   Direction: 220°SW
Pressure: 30.07"   Gusts: 20mph
Location:  36.04°N, 94.25°W
Report Text: KFYV 261753Z 22012G17KT 10SM CLR 11/M01 A3007 RMK AO2 SLP184 T01061006 10106 21039 58018
Loading
Personal Weather Stations






























Interactive Weather Map New forecast layout! Learn more

10-Day Weather Forecast

Advertisements
Track Severe Weather on mobile